Aiviq — WDG2524 — position and weather

sailwx.info

Track history (hours):
 
Tides and Currents Weather Stations Pressure Air Temp Water Temp Dewpoint Dewpoint Depression Visibility Wind Speed Wind Dir Waves Ship Positions

Aiviq

Owner: Offshore Service Vessels, L.L.C., Galliano, LA. More information available from US FCC via Universal Licensing System and Coast Guard Vessel Documentation Center.

Last reported at 2016-Aug-18 22:33 UTC. Time now 2016-Aug-25 20:11 UTC.
Position N 29°39' W 120°27'.

Length 109 m; draft 9 m.

Type: Towing. MMSI: 367141000.

Date/timePositionNaut miles runAvg speedWind from/ knotsBaromVisibWave heightAir tempDewpointWater temp
2016-Aug-18 22:33N 29°39' W 120°27'12 9.1
2016-Aug-18 21:17N 29°46' W 120°37'8 9.2
2016-Aug-18 20:26N 29°50' W 120°45'20 8.9
2016-Aug-18 18:08N 30°03' W 121°03'10 9.0
2016-Aug-18 17:03N 30°09' W 121°12'5 8.9
2016-Aug-18 16:31N 30°12' W 121°17'9 8.9
2016-Aug-18 15:33N 30°17' W 121°24'21 9.0
2016-Aug-18 13:15N 30°30' W 121°43'9 9.1
2016-Aug-18 12:13N 30°35' W 121°52'6 9.5
2016-Aug-18 11:32N 30°39' W 121°58'12 9.9
2016-Aug-18 10:21N 30°46' W 122°09'30 9.9
2016-Aug-18 07:19N 31°05' W 122°36'1010.0
2016-Aug-18 06:20N 31°11' W 122°45'27 9.8
2016-Aug-18 03:33N 31°28' W 123°11'22 9.7
2016-Aug-18 01:14N 31°41' W 123°32'7 9.6
2016-Aug-18 00:33N 31°45' W 123°38'  
Track history (hours):
 
Tides and Currents Weather Stations Pressure Air Temp Water Temp Dewpoint Dewpoint Depression Visibility Wind Speed Wind Dir Waves Ship Positions

Aiviq

Owner: Offshore Service Vessels, L.L.C., Galliano, LA. More information available from US FCC via Universal Licensing System and Coast Guard Vessel Documentation Center.

Last reported at 2016-Aug-18 22:33 UTC. Time now 2016-Aug-25 20:11 UTC.
Position N 29°39' W 120°27'.

Length 109 m; draft 9 m.

Type: Towing. MMSI: 367141000.

Date/timePositionNaut miles runAvg speedWind from/ knotsBaromVisibWave heightAir tempDewpointWater temp
2016-Aug-18 22:33N 29°39' W 120°27'12 9.1
2016-Aug-18 21:17N 29°46' W 120°37'8 9.2
2016-Aug-18 20:26N 29°50' W 120°45'20 8.9
2016-Aug-18 18:08N 30°03' W 121°03'10 9.0
2016-Aug-18 17:03N 30°09' W 121°12'5 8.9
2016-Aug-18 16:31N 30°12' W 121°17'9 8.9
2016-Aug-18 15:33N 30°17' W 121°24'21 9.0
2016-Aug-18 13:15N 30°30' W 121°43'9 9.1
2016-Aug-18 12:13N 30°35' W 121°52'6 9.5
2016-Aug-18 11:32N 30°39' W 121°58'12 9.9
2016-Aug-18 10:21N 30°46' W 122°09'30 9.9
2016-Aug-18 07:19N 31°05' W 122°36'1010.0
2016-Aug-18 06:20N 31°11' W 122°45'27 9.8
2016-Aug-18 03:33N 31°28' W 123°11'22 9.7
2016-Aug-18 01:14N 31°41' W 123°32'7 9.6
2016-Aug-18 00:33N 31°45' W 123°38'  

Dump ship's entire track history